Time;durP1;ratioP1;P1;durP2;ratioP2;P2;SDS_P1;SDS_P2;PMS_P1;PMS_P2;Temp;Humidity;BMP_temperature;BMP_pressure;BME280_temperature;BME280_humidity;BME280_pressure;Samples;Min_cycle;Max_cycle;Signal;HPM_P1;HPM_P2
2022/07/17 00:01:43;;;;;;;2.15;1.98;;;18.60;60.80;;;;;;5010984;28;20030;-85
2022/07/17 00:04:09;;;;;;;1.80;1.67;;;18.50;61.10;;;;;;4994872;28;20026;-84
2022/07/17 00:06:34;;;;;;;2.85;2.33;;;18.50;61.40;;;;;;4993985;28;20578;-83
2022/07/17 00:09:00;;;;;;;2.25;2.05;;;18.50;61.90;;;;;;5001945;28;20023;-82
2022/07/17 00:11:26;;;;;;;2.08;1.88;;;18.40;62.50;;;;;;5013660;28;20026;-82
2022/07/17 00:13:53;;;;;;;2.50;2.25;;;18.30;63.00;;;;;;5017097;28;20310;-81
2022/07/17 00:16:18;;;;;;;4.78;2.55;;;18.40;63.60;;;;;;5017505;28;20038;-81
2022/07/17 00:18:44;;;;;;;4.10;2.50;;;18.30;64.00;;;;;;5017383;28;20018;-81
2022/07/17 00:21:10;;;;;;;5.32;2.47;;;18.30;63.90;;;;;;5016846;28;20014;-83
2022/07/17 00:23:35;;;;;;;4.80;2.50;;;18.20;63.90;;;;;;5015883;28;20094;-82
2022/07/17 00:26:01;;;;;;;4.38;2.15;;;18.20;63.70;;;;;;5016980;28;20023;-84
2022/07/17 00:28:27;;;;;;;3.70;2.30;;;18.20;63.50;;;;;;5016995;28;20026;-81
2022/07/17 00:30:52;;;;;;;2.95;2.22;;;18.20;63.30;;;;;;5016684;28;20034;-82
2022/07/17 00:33:18;;;;;;;3.42;2.20;;;18.20;63.20;;;;;;5014270;28;20090;-81
2022/07/17 00:35:44;;;;;;;2.78;2.03;;;18.20;63.30;;;;;;5015118;28;20031;-83
2022/07/17 00:38:10;;;;;;;3.00;2.17;;;18.20;63.60;;;;;;5013640;28;20026;-85
2022/07/17 00:40:35;;;;;;;2.85;2.38;;;18.10;63.90;;;;;;5012218;28;20026;-83
2022/07/17 00:43:01;;;;;;;2.83;2.28;;;18.10;64.20;;;;;;4992375;28;20144;-84
2022/07/17 00:45:27;;;;;;;2.22;2.00;;;18.10;64.60;;;;;;4992139;28;20031;-84
2022/07/17 00:48:01;;;;;;;2.67;2.10;;;18.00;64.80;;;;;;5010590;28;20077;-85
2022/07/17 00:50:35;;;;;;;2.65;2.20;;;18.00;65.00;;;;;;5007876;28;20022;-87
2022/07/17 00:53:01;;;;;;;2.33;2.13;;;18.00;65.50;;;;;;5008667;28;20043;-86
2022/07/17 00:55:27;;;;;;;5.30;2.47;;;17.90;65.80;;;;;;5009652;28;20018;-86
2022/07/17 00:57:54;;;;;;;3.70;1.73;;;17.90;66.70;;;;;;5010022;28;20068;-85
2022/07/17 01:00:21;;;;;;;3.78;2.33;;;17.90;66.50;;;;;;5010235;28;20022;-84
2022/07/17 01:02:49;;;;;;;3.42;2.38;;;17.80;66.90;;;;;;5007818;28;20026;-86
2022/07/17 01:05:17;;;;;;;3.70;2.63;;;17.70;67.50;;;;;;5009955;28;20060;-85
2022/07/17 01:07:43;;;;;;;5.10;2.72;;;17.70;68.00;;;;;;5011418;28;20078;-85
2022/07/17 01:10:09;;;;;;;2.40;2.20;;;17.70;68.30;;;;;;5003310;28;20034;-85
2022/07/17 01:12:35;;;;;;;4.75;2.83;;;17.60;68.60;;;;;;5006560;28;20034;-82
2022/07/17 01:15:01;;;;;;;4.53;2.72;;;17.60;68.80;;;;;;5005388;28;20035;-84
2022/07/17 01:17:27;;;;;;;3.47;2.50;;;17.60;69.00;;;;;;4990192;28;20050;-84
2022/07/17 01:19:53;;;;;;;5.53;2.80;;;17.60;69.30;;;;;;5008254;28;20041;-84
2022/07/17 01:22:19;;;;;;;3.22;2.28;;;17.60;69.40;;;;;;5009020;28;20027;-84
2022/07/17 01:24:45;;;;;;;3.60;2.80;;;17.50;69.60;;;;;;5009655;28;20057;-84
2022/07/17 01:27:11;;;;;;;5.00;2.40;;;17.50;69.40;;;;;;5052345;23;20046;-83
2022/07/17 01:29:38;;;;;;;2.97;2.47;;;17.50;69.70;;;;;;5027046;28;20057;-85
2022/07/17 01:32:03;;;;;;;3.40;2.78;;;17.50;70.10;;;;;;5004128;28;20072;-84
2022/07/17 01:34:29;;;;;;;3.17;2.80;;;17.50;70.00;;;;;;5003250;28;20057;-83
2022/07/17 01:36:55;;;;;;;5.20;2.85;;;17.50;70.00;;;;;;5006970;28;20450;-85
2022/07/17 01:39:52;;;;;;;3.65;2.50;;;17.50;70.00;;;;;;5002225;28;20026;-84
2022/07/17 01:42:07;;;;;;;4.88;2.92;;;17.50;70.00;;;;;;5001429;28;20030;-83
2022/07/17 01:44:36;;;;;;;4.78;3.17;;;17.40;70.40;;;;;;4998844;28;20045;-84
2022/07/17 01:47:03;;;;;;;5.55;2.60;;;17.40;70.50;;;;;;4999383;28;20036;-84
2022/07/17 01:49:28;;;;;;;3.72;2.30;;;17.40;70.50;;;;;;4979859;28;20023;-83
2022/07/17 01:51:59;;;;;;;3.55;2.42;;;17.40;70.50;;;;;;4996170;28;20153;-84
2022/07/17 01:55:03;;;;;;;4.15;2.38;;;17.30;70.80;;;;;;4980159;28;20026;-83
2022/07/17 01:57:29;;;;;;;7.85;2.90;;;17.30;71.10;;;;;;5013974;28;20026;-83
2022/07/17 01:59:54;;;;;;;3.97;2.53;;;17.20;71.00;;;;;;5009115;28;20076;-84
2022/07/17 02:02:20;;;;;;;4.03;2.70;;;17.20;70.90;;;;;;5016244;28;20351;-84
2022/07/17 02:04:46;;;;;;;4.25;2.85;;;17.10;71.10;;;;;;5015515;28;20111;-84
2022/07/17 02:07:12;;;;;;;4.03;2.63;;;17.10;71.30;;;;;;5015304;28;20041;-83
2022/07/17 02:09:38;;;;;;;2.85;2.30;;;17.10;71.50;;;;;;5017742;28;20049;-84
2022/07/17 02:12:05;;;;;;;4.40;2.58;;;17.10;71.60;;;;;;5001946;28;20080;-84
2022/07/17 02:14:31;;;;;;;9.68;2.75;;;17.10;71.90;;;;;;5000865;28;20060;-83
2022/07/17 02:16:57;;;;;;;4.43;2.92;;;17.00;72.40;;;;;;5004614;28;20048;-83
2022/07/17 02:19:26;;;;;;;5.18;2.40;;;17.00;72.70;;;;;;4997724;28;20395;-83
2022/07/17 02:21:54;;;;;;;3.80;2.85;;;17.00;72.80;;;;;;4995747;28;20048;-84
2022/07/17 02:24:20;;;;;;;3.70;2.30;;;17.00;72.90;;;;;;4979589;28;20031;-83
2022/07/17 02:26:46;;;;;;;3.20;2.63;;;16.90;73.10;;;;;;5004269;28;20041;-83
2022/07/17 02:29:11;;;;;;;3.75;2.42;;;16.90;73.30;;;;;;5019060;28;20022;-82
2022/07/17 02:31:37;;;;;;;6.50;3.47;;;16.90;73.30;;;;;;5035346;28;20046;-82
2022/07/17 02:34:03;;;;;;;4.57;2.90;;;17.00;75.50;;;;;;5036413;28;20038;-84
2022/07/17 02:36:28;;;;;;;4.72;3.13;;;17.00;81.20;;;;;;5023854;28;20084;-85
2022/07/17 02:38:54;;;;;;;3.72;2.70;;;16.80;73.70;;;;;;5026502;28;20022;-84
2022/07/17 02:41:20;;;;;;;5.22;3.17;;;16.80;73.90;;;;;;5026464;28;20026;-84
2022/07/17 02:43:45;;;;;;;4.68;3.03;;;16.80;74.20;;;;;;5025721;28;20554;-84
2022/07/17 02:46:13;;;;;;;4.65;2.85;;;16.70;74.50;;;;;;5007678;28;20026;-85
2022/07/17 02:48:40;;;;;;;3.55;3.00;;;16.70;74.50;;;;;;4991016;28;20026;-83
2022/07/17 02:51:06;;;;;;;4.00;2.90;;;16.60;74.50;;;;;;4995353;28;20028;-83
2022/07/17 02:53:32;;;;;;;5.20;2.80;;;16.60;74.70;;;;;;5025592;28;20026;-83
2022/07/17 02:55:57;;;;;;;3.58;2.55;;;16.70;75.00;;;;;;5025490;28;20025;-83
2022/07/17 02:58:23;;;;;;;3.17;2.55;;;16.70;75.20;;;;;;4999649;28;20030;-83
2022/07/17 03:00:49;;;;;;;4.00;3.03;;;16.70;75.50;;;;;;5011942;28;20035;-83
2022/07/17 03:03:15;;;;;;;5.72;2.85;;;16.60;75.50;;;;;;5006933;28;20082;-84
2022/07/17 03:05:40;;;;;;;4.20;2.80;;;16.60;75.40;;;;;;5007350;28;20027;-83
2022/07/17 03:08:06;;;;;;;5.40;2.78;;;16.60;75.60;;;;;;5007017;28;20089;-84
2022/07/17 03:10:32;;;;;;;4.03;3.35;;;16.50;75.70;;;;;;5038225;28;20014;-82
2022/07/17 03:12:58;;;;;;;4.70;3.17;;;16.50;75.90;;;;;;5034705;28;20121;-84
2022/07/17 03:15:23;;;;;;;5.63;2.75;;;16.40;76.20;;;;;;5025066;28;20084;-84
2022/07/17 03:17:49;;;;;;;4.38;3.05;;;16.40;76.30;;;;;;5023502;28;20094;-84
2022/07/17 03:20:15;;;;;;;3.30;2.75;;;16.40;76.40;;;;;;4985646;28;20022;-84
2022/07/17 03:22:40;;;;;;;3.53;2.88;;;16.40;76.40;;;;;;4985922;28;20029;-84
2022/07/17 03:25:07;;;;;;;4.90;3.20;;;16.40;76.10;;;;;;5001519;28;20485;-85
2022/07/17 03:27:33;;;;;;;3.92;3.25;;;16.40;76.60;;;;;;4998109;28;20041;-82
2022/07/17 03:29:58;;;;;;;5.05;3.00;;;16.40;76.20;;;;;;5002422;28;20030;-84
2022/07/17 03:32:24;;;;;;;4.03;2.88;;;16.30;76.40;;;;;;5027691;28;20034;-84
2022/07/17 03:34:50;;;;;;;4.45;3.20;;;16.30;76.60;;;;;;5024777;28;20053;-84
2022/07/17 03:37:15;;;;;;;6.85;3.55;;;16.30;76.80;;;;;;5006741;28;20030;-85
2022/07/17 03:39:41;;;;;;;6.38;3.20;;;16.30;77.10;;;;;;5023677;28;20022;-84
2022/07/17 03:42:07;;;;;;;5.65;3.63;;;16.20;77.00;;;;;;5024039;28;20026;-82
2022/07/17 03:44:33;;;;;;;4.20;3.03;;;16.20;76.90;;;;;;5023815;28;20041;-84
2022/07/17 03:46:58;;;;;;;5.70;4.00;;;16.20;76.80;;;;;;5023359;28;20040;-84
2022/07/17 03:49:24;;;;;;;3.47;3.08;;;16.20;77.10;;;;;;5017768;28;20101;-84
2022/07/17 03:51:50;;;;;;;5.28;2.75;;;16.20;76.90;;;;;;5003864;28;20074;-84
2022/07/17 03:54:16;;;;;;;5.00;3.22;;;16.20;76.60;;;;;;5003851;28;20026;-83
2022/07/17 03:56:41;;;;;;;4.78;2.83;;;16.20;76.50;;;;;;4985603;28;20063;-84
2022/07/17 03:59:07;;;;;;;6.07;3.35;;;16.20;76.30;;;;;;4986435;28;20052;-84
2022/07/17 04:01:33;;;;;;;5.18;2.90;;;16.20;76.20;;;;;;5022431;28;20032;-84
2022/07/17 04:03:58;;;;;;;6.53;3.30;;;16.30;77.40;;;;;;5005610;28;20025;-83
2022/07/17 04:06:24;;;;;;;5.70;3.20;;;16.30;77.90;;;;;;5005721;28;20462;-82
2022/07/17 04:08:50;;;;;;;5.28;3.42;;;16.20;76.50;;;;;;5023832;28;20105;-83
2022/07/17 04:11:15;;;;;;;3.70;3.30;;;16.20;76.70;;;;;;5004502;28;20085;-83
2022/07/17 04:13:41;;;;;;;5.55;4.20;;;16.20;76.50;;;;;;5022288;28;20045;-84
2022/07/17 04:16:07;;;;;;;7.13;3.38;;;16.10;75.50;;;;;;5003637;28;20048;-84
2022/07/17 04:18:34;;;;;;;4.78;3.20;;;16.20;74.90;;;;;;5002908;28;20067;-82
2022/07/17 04:21:05;;;;;;;5.10;3.25;;;16.20;74.20;;;;;;5008962;28;20026;-82
2022/07/17 04:23:31;;;;;;;8.32;3.35;;;16.20;74.00;;;;;;4999933;28;20026;-83
2022/07/17 04:25:57;;;;;;;5.63;3.10;;;16.20;73.70;;;;;;5004103;28;20033;-84
2022/07/17 04:28:23;;;;;;;6.05;3.50;;;16.20;73.60;;;;;;4986659;28;20027;-84
2022/07/17 04:30:49;;;;;;;10.23;3.55;;;16.20;75.80;;;;;;4989182;28;20030;-84
2022/07/17 04:33:15;;;;;;;4.82;3.25;;;16.20;78.00;;;;;;5005927;28;20113;-84
2022/07/17 04:35:41;;;;;;;8.35;3.70;;;16.10;73.00;;;;;;5024703;28;20029;-85
2022/07/17 04:38:08;;;;;;;6.97;4.30;;;16.00;72.90;;;;;;5024644;28;20475;-84
2022/07/17 04:40:35;;;;;;;5.80;3.38;;;16.10;72.80;;;;;;5024604;28;20433;-84
2022/07/17 04:43:01;;;;;;;7.00;4.20;;;16.10;72.90;;;;;;5014184;28;20037;-83
2022/07/17 04:45:27;;;;;;;5.03;3.78;;;16.00;72.90;;;;;;5027678;28;20026;-83
2022/07/17 04:47:53;;;;;;;5.57;3.85;;;16.10;73.10;;;;;;5023207;28;20029;-83
2022/07/17 04:50:20;;;;;;;5.60;3.55;;;16.10;73.20;;;;;;5022950;28;20540;-84
2022/07/17 04:52:46;;;;;;;9.40;3.95;;;16.10;73.10;;;;;;4993960;28;20023;-84
2022/07/17 04:55:12;;;;;;;6.30;3.45;;;16.20;73.30;;;;;;5002506;28;20018;-84
2022/07/17 04:57:38;;;;;;;5.47;3.20;;;16.20;73.80;;;;;;4985247;28;20097;-83
2022/07/17 05:00:05;;;;;;;5.45;3.70;;;16.30;74.00;;;;;;5012977;28;20060;-83
2022/07/17 05:02:31;;;;;;;13.35;4.43;;;16.30;73.80;;;;;;4985260;28;20104;-84
2022/07/17 05:04:57;;;;;;;3.88;2.92;;;16.30;73.60;;;;;;5020833;28;20025;-84
2022/07/17 05:07:23;;;;;;;7.72;3.40;;;16.40;73.50;;;;;;5020281;28;20504;-85
2022/07/17 05:09:49;;;;;;;8.70;3.50;;;16.50;73.00;;;;;;5011846;28;20555;-84
2022/07/17 05:12:15;;;;;;;8.35;3.47;;;16.50;72.60;;;;;;5014479;28;20030;-84
2022/07/17 05:14:40;;;;;;;10.07;3.67;;;16.60;72.60;;;;;;5015146;28;20034;-84
2022/07/17 05:17:06;;;;;;;4.53;3.10;;;17.20;73.00;;;;;;5016560;28;20113;-84
2022/07/17 05:19:32;;;;;;;4.03;2.72;;;19.80;68.10;;;;;;5019981;28;20030;-83
2022/07/17 05:22:44;;;;;;;4.57;2.95;;;22.50;60.00;;;;;;5019495;28;20033;-85
2022/07/17 05:28:33;;;;;;;6.80;3.28;;;26.30;50.70;;;;;;4975043;28;20013;-82
2022/07/17 05:30:59;;;;;;;3.80;2.97;;;27.70;47.80;;;;;;5000282;28;20057;-84
2022/07/17 05:33:24;;;;;;;5.38;2.67;;;28.80;45.60;;;;;;5014758;28;20106;-82
2022/07/17 05:35:53;;;;;;;3.83;2.75;;;29.00;44.40;;;;;;5019348;28;20022;-83
2022/07/17 05:38:19;;;;;;;4.05;3.28;;;28.90;43.90;;;;;;5019616;28;20018;-82
2022/07/17 05:40:44;;;;;;;2.63;2.42;;;29.10;44.30;;;;;;5019709;28;20026;-82
2022/07/17 05:43:10;;;;;;;2.67;2.47;;;30.40;43.70;;;;;;5019491;28;20036;-82
2022/07/17 05:45:39;;;;;;;2.50;2.25;;;31.70;41.20;;;;;;5019660;28;20046;-83
2022/07/17 05:48:06;;;;;;;2.58;2.38;;;32.10;40.00;;;;;;5020495;28;20092;-83
2022/07/17 05:50:33;;;;;;;2.67;2.08;;;32.40;38.30;;;;;;5020471;28;20058;-81
2022/07/17 05:52:58;;;;;;;2.47;2.10;;;32.50;38.30;;;;;;5020541;28;20029;-82
2022/07/17 05:55:24;;;;;;;4.05;2.60;;;32.90;37.20;;;;;;5029798;28;20044;-81
2022/07/17 05:57:50;;;;;;;2.20;2.00;;;33.00;37.00;;;;;;5009206;28;20405;-82
2022/07/17 06:00:16;;;;;;;2.30;2.10;;;33.20;36.90;;;;;;5018229;28;20026;-83
2022/07/17 06:02:42;;;;;;;2.33;1.98;;;33.40;36.70;;;;;;5018359;28;20050;-82
2022/07/17 06:05:08;;;;;;;2.55;2.28;;;33.40;36.50;;;;;;5027351;28;20041;-82
2022/07/17 06:07:34;;;;;;;5.25;2.30;;;33.60;36.50;;;;;;5028403;28;20037;-82
2022/07/17 06:10:00;;;;;;;2.58;2.00;;;34.00;36.10;;;;;;5024958;28;20037;-83
2022/07/17 06:12:25;;;;;;;3.47;1.92;;;34.10;35.90;;;;;;5021443;28;20030;-84
2022/07/17 06:14:51;;;;;;;3.50;2.38;;;33.90;35.50;;;;;;5030939;28;20042;-81
2022/07/17 06:17:16;;;;;;;3.13;2.40;;;34.10;35.60;;;;;;5033782;28;20022;-83
2022/07/17 06:19:42;;;;;;;4.15;2.67;;;33.80;35.80;;;;;;5033670;28;20018;-81
2022/07/17 06:22:08;;;;;;;2.80;1.95;;;33.60;36.10;;;;;;5028801;28;20030;-81
2022/07/17 06:24:33;;;;;;;2.00;1.80;;;33.60;36.00;;;;;;5023480;28;20026;-81
2022/07/17 06:26:59;;;;;;;2.17;1.98;;;34.60;35.40;;;;;;5021064;28;20034;-83
2022/07/17 06:29:25;;;;;;;1.85;1.73;;;35.50;34.20;;;;;;5024799;28;20107;-82
2022/07/17 06:31:51;;;;;;;1.77;1.67;;;36.10;33.20;;;;;;5025291;28;20025;-84
2022/07/17 06:34:17;;;;;;;6.22;2.03;;;36.00;33.10;;;;;;5014778;28;20037;-83
2022/07/17 06:36:43;;;;;;;2.22;2.03;;;36.10;32.10;;;;;;5014450;28;20021;-83
2022/07/17 06:39:08;;;;;;;2.05;1.95;;;35.10;32.70;;;;;;5025230;28;20028;-83
2022/07/17 06:41:34;;;;;;;6.97;2.10;;;34.80;33.30;;;;;;5017241;28;20050;-82
2022/07/17 06:43:59;;;;;;;2.10;1.60;;;34.90;32.90;;;;;;5005465;28;20058;-82
2022/07/17 06:46:25;;;;;;;1.67;1.63;;;34.90;33.20;;;;;;5003593;28;20030;-83
2022/07/17 06:48:51;;;;;;;1.67;1.58;;;35.10;32.90;;;;;;5004383;28;20031;-81
2022/07/17 06:51:18;;;;;;;1.63;1.52;;;35.40;33.00;;;;;;4986614;28;20038;-82
2022/07/17 06:53:43;;;;;;;2.42;1.60;;;36.20;32.30;;;;;;5004220;28;20030;-81
2022/07/17 06:56:09;;;;;;;1.73;1.52;;;36.70;32.20;;;;;;5009376;28;20061;-82
2022/07/17 06:58:35;;;;;;;1.60;1.50;;;37.00;31.60;;;;;;5004393;28;20050;-83
2022/07/17 07:01:09;;;;;;;1.52;1.40;;;37.40;31.80;;;;;;4986044;28;20049;-83
2022/07/17 07:03:35;;;;;;;1.77;1.58;;;37.90;31.50;;;;;;5001724;28;20050;-83
2022/07/17 07:06:01;;;;;;;2.53;1.80;;;38.20;31.20;;;;;;5000684;28;20392;-82
2022/07/17 07:08:26;;;;;;;1.98;1.77;;;37.70;30.50;;;;;;5006348;28;20026;-82
2022/07/17 07:10:52;;;;;;;1.70;1.60;;;37.10;31.30;;;;;;5025344;28;20034;-82
2022/07/17 07:13:18;;;;;;;3.33;1.80;;;36.90;31.60;;;;;;5023821;28;20026;-83
2022/07/17 07:15:44;;;;;;;2.75;1.63;;;36.90;31.70;;;;;;5013636;28;20034;-82
2022/07/17 07:18:09;;;;;;;2.03;1.77;;;36.60;32.00;;;;;;4990826;28;20054;-82
2022/07/17 07:20:35;;;;;;;1.70;1.60;;;35.00;32.20;;;;;;5009881;28;20045;-82
2022/07/17 07:23:01;;;;;;;2.10;1.52;;;32.10;34.00;;;;;;5018983;28;20387;-82
2022/07/17 07:25:26;;;;;;;3.58;2.10;;;29.50;36.80;;;;;;5008087;28;20018;-82
2022/07/17 07:27:52;;;;;;;2.55;1.80;;;27.40;39.50;;;;;;5034992;23;20057;-87
2022/07/17 07:30:18;;;;;;;1.60;1.50;;;25.70;41.90;;;;;;5023158;28;20112;-86
2022/07/17 07:32:43;;;;;;;2.67;1.95;;;24.60;44.20;;;;;;5022691;28;20082;-85
2022/07/17 07:35:10;;;;;;;3.13;1.48;;;23.70;45.20;;;;;;5004875;28;20084;-85
2022/07/17 07:37:36;;;;;;;2.67;1.58;;;23.20;46.00;;;;;;5013659;28;20030;-83
2022/07/17 07:40:02;;;;;;;3.80;1.63;;;22.90;46.60;;;;;;5005456;28;20026;-86
2022/07/17 07:42:28;;;;;;;1.83;1.48;;;22.70;46.50;;;;;;5022597;28;20032;-85
2022/07/17 07:44:54;;;;;;;2.90;1.65;;;22.50;47.30;;;;;;5020951;28;20387;-82
2022/07/17 07:47:20;;;;;;;1.98;1.42;;;22.30;47.90;;;;;;5002874;28;20102;-83
2022/07/17 07:49:46;;;;;;;1.88;1.48;;;22.30;48.00;;;;;;4966683;28;20023;-81
2022/07/17 07:52:11;;;;;;;2.33;1.70;;;22.40;48.00;;;;;;4966631;28;20057;-81
2022/07/17 07:54:37;;;;;;;4.30;1.50;;;22.40;48.30;;;;;;4983207;28;20129;-84
2022/07/17 07:57:03;;;;;;;3.50;1.75;;;22.40;48.50;;;;;;4986716;28;20095;-81
2022/07/17 07:59:32;;;;;;;1.85;1.67;;;22.40;48.30;;;;;;4968813;28;20102;-84
2022/07/17 08:01:58;;;;;;;1.77;1.48;;;22.40;48.20;;;;;;4985217;28;20022;-84
2022/07/17 08:04:24;;;;;;;2.88;1.33;;;22.50;48.10;;;;;;4983077;28;20034;-84
2022/07/17 08:06:50;;;;;;;5.03;1.80;;;22.50;47.50;;;;;;4987361;28;20026;-83
2022/07/17 08:09:15;;;;;;;1.52;1.42;;;22.60;47.30;;;;;;4979585;28;20507;-83
2022/07/17 08:11:41;;;;;;;5.53;2.20;;;22.70;47.30;;;;;;4981822;28;20042;-83
2022/07/17 08:14:07;;;;;;;4.65;1.48;;;22.80;46.50;;;;;;4981112;28;20034;-84
2022/07/17 08:16:32;;;;;;;1.88;1.55;;;22.90;45.70;;;;;;4982185;28;20015;-84
2022/07/17 08:18:58;;;;;;;2.85;1.65;;;22.80;46.30;;;;;;4973259;28;20026;-84
2022/07/17 08:21:24;;;;;;;1.50;1.40;;;22.80;46.70;;;;;;4982873;28;20034;-83
2022/07/17 08:23:49;;;;;;;8.27;1.60;;;22.90;46.60;;;;;;4984232;28;20027;-85
2022/07/17 08:26:15;;;;;;;2.05;1.17;;;23.00;46.30;;;;;;4983454;28;20429;-84
2022/07/17 08:28:41;;;;;;;2.97;1.55;;;23.10;45.30;;;;;;4992024;28;20038;-85
2022/07/17 08:31:07;;;;;;;3.58;1.60;;;23.10;45.00;;;;;;5001932;28;20031;-84
2022/07/17 08:33:32;;;;;;;6.00;1.73;;;23.20;45.40;;;;;;5001926;28;20030;-83
2022/07/17 08:35:58;;;;;;;2.30;1.92;;;23.20;45.50;;;;;;5004171;28;20081;-84
2022/07/17 08:38:24;;;;;;;4.63;1.50;;;23.30;45.70;;;;;;4988833;28;20065;-85
2022/07/17 08:40:52;;;;;;;2.97;1.45;;;23.50;45.80;;;;;;5013550;28;20014;-81
2022/07/17 08:43:18;;;;;;;3.40;1.88;;;23.50;46.10;;;;;;4998000;28;20018;-84
2022/07/17 08:45:45;;;;;;;2.72;1.60;;;23.60;45.50;;;;;;5001349;28;20022;-85
2022/07/17 08:48:13;;;;;;;2.97;1.55;;;23.70;45.40;;;;;;5003834;28;20027;-83
2022/07/17 08:50:39;;;;;;;1.88;1.65;;;23.80;45.00;;;;;;4985289;28;20077;-83
2022/07/17 08:53:06;;;;;;;4.53;1.70;;;23.80;45.40;;;;;;4991706;28;20019;-82
2022/07/17 08:55:32;;;;;;;1.55;1.45;;;23.90;45.70;;;;;;4991798;28;20027;-85
2022/07/17 08:57:58;;;;;;;2.85;1.80;;;24.00;45.10;;;;;;4982490;28;20412;-83
2022/07/17 09:00:25;;;;;;;2.95;1.63;;;24.10;44.00;;;;;;4981259;28;20023;-85
2022/07/17 09:03:03;;;;;;;3.28;2.03;;;24.20;43.40;;;;;;4982693;28;20027;-83
2022/07/17 09:05:35;;;;;;;4.82;1.30;;;24.20;43.90;;;;;;4981711;28;20031;-83
2022/07/17 09:08:04;;;;;;;5.13;1.77;;;24.20;44.00;;;;;;4995220;28;20246;-83
2022/07/17 09:10:40;;;;;;;1.75;1.35;;;24.30;44.10;;;;;;4999858;28;20038;-84
2022/07/17 09:13:28;;;;;;;4.22;1.65;;;24.40;44.30;;;;;;5003649;28;20025;-84
2022/07/17 09:15:57;;;;;;;2.00;1.73;;;24.50;43.70;;;;;;5002373;28;20053;-84
2022/07/17 09:18:23;;;;;;;3.28;1.50;;;24.60;43.60;;;;;;5001468;28;20105;-82
2022/07/17 09:20:53;;;;;;;1.55;1.42;;;24.70;43.80;;;;;;5001766;28;20510;-85
2022/07/17 09:23:20;;;;;;;1.75;1.63;;;24.90;43.50;;;;;;4985719;28;20033;-85
2022/07/17 09:25:49;;;;;;;3.22;1.33;;;25.10;42.60;;;;;;5001184;28;20041;-85
2022/07/17 09:28:16;;;;;;;3.88;1.65;;;25.20;42.60;;;;;;5001108;28;20037;-84
2022/07/17 09:30:44;;;;;;;3.10;1.92;;;25.20;42.70;;;;;;5000380;28;20042;-83
2022/07/17 09:33:19;;;;;;;3.15;1.95;;;25.30;42.70;;;;;;4981996;28;20034;-84
2022/07/17 09:35:57;;;;;;;3.63;1.67;;;25.40;42.30;;;;;;5001846;28;20483;-85
2022/07/17 09:38:42;;;;;;;3.38;1.23;;;25.30;42.10;;;;;;5002911;28;20037;-84
2022/07/17 09:41:16;;;;;;;2.20;1.80;;;25.00;42.30;;;;;;4982399;28;20038;-83
2022/07/17 09:43:45;;;;;;;3.35;1.70;;;24.90;42.60;;;;;;5001315;28;20030;-85
2022/07/17 09:46:19;;;;;;;2.38;1.23;;;25.00;42.10;;;;;;4987653;28;20034;-85
2022/07/17 09:48:47;;;;;;;1.50;1.40;;;25.10;42.00;;;;;;4988205;28;20474;-83
2022/07/17 09:51:25;;;;;;;1.45;1.35;;;25.20;41.40;;;;;;5004126;28;20023;-85
2022/07/17 09:53:56;;;;;;;2.63;1.58;;;25.30;41.30;;;;;;4990707;28;20030;-85
2022/07/17 09:56:24;;;;;;;3.22;1.70;;;25.50;41.70;;;;;;5011720;28;20089;-85
2022/07/17 09:59:17;;;;;;;2.45;1.50;;;25.70;41.20;;;;;;5006056;28;20026;-84
2022/07/17 10:01:44;;;;;;;1.58;1.30;;;25.70;40.10;;;;;;5009855;28;20034;-81
2022/07/17 10:04:11;;;;;;;3.85;1.60;;;25.70;40.10;;;;;;5000293;28;20037;-81
2022/07/17 10:06:38;;;;;;;4.18;1.85;;;25.50;40.80;;;;;;5019100;28;20389;-82
2022/07/17 10:09:05;;;;;;;6.82;1.77;;;25.50;41.20;;;;;;5019341;28;20011;-82
2022/07/17 10:11:35;;;;;;;5.60;1.38;;;25.80;41.30;;;;;;5015726;28;20080;-84
2022/07/17 10:14:08;;;;;;;2.63;1.83;;;25.90;40.30;;;;;;5006475;28;20057;-84
2022/07/17 10:16:37;;;;;;;2.45;1.17;;;25.90;39.90;;;;;;5005459;28;20085;-84
2022/07/17 10:19:21;;;;;;;6.10;1.52;;;26.00;39.80;;;;;;5005979;28;20022;-82
2022/07/17 10:22:04;;;;;;;1.95;1.50;;;26.20;38.50;;;;;;5007068;28;20026;-82
2022/07/17 10:24:30;;;;;;;1.83;1.60;;;26.30;38.80;;;;;;5008507;28;20086;-85
2022/07/17 10:26:57;;;;;;;1.95;1.40;;;26.40;39.10;;;;;;4987523;28;20041;-83
2022/07/17 10:29:36;;;;;;;6.68;1.60;;;26.40;39.60;;;;;;5005862;28;20089;-84
2022/07/17 10:32:22;;;;;;;3.50;1.60;;;26.50;39.40;;;;;;4985908;28;20031;-86
2022/07/17 10:34:54;;;;;;;2.90;1.45;;;26.50;39.60;;;;;;4969099;28;20035;-85
2022/07/17 10:37:38;;;;;;;3.15;1.77;;;26.40;38.50;;;;;;4994207;28;20022;-85
2022/07/17 10:40:15;;;;;;;1.50;1.38;;;26.50;38.70;;;;;;5001630;28;20335;-81
2022/07/17 10:42:41;;;;;;;1.52;1.20;;;26.50;38.50;;;;;;5033337;28;20026;-81
2022/07/17 10:45:17;;;;;;;3.42;1.40;;;26.40;38.80;;;;;;5013614;28;20071;-81
2022/07/17 10:47:59;;;;;;;3.83;1.40;;;26.60;38.60;;;;;;5017998;28;20099;-81
2022/07/17 10:50:35;;;;;;;4.47;1.80;;;26.80;38.60;;;;;;5010574;28;20038;-82
2022/07/17 10:53:07;;;;;;;5.40;1.77;;;27.00;38.30;;;;;;4997093;28;20149;-82
2022/07/17 10:55:33;;;;;;;;;;;27.30;37.60;;;;;;5003981;28;20026;-85
2022/07/17 10:57:59;;;;;;;2.53;1.30;;;27.30;37.30;;;;;;4989827;28;19910;-85
2022/07/17 11:00:26;;;;;;;2.33;1.27;;;27.40;37.60;;;;;;4994753;28;20121;-83
2022/07/17 11:02:52;;;;;;;2.80;1.67;;;27.80;37.70;;;;;;5005759;28;20061;-83
2022/07/17 11:05:19;;;;;;;1.75;1.65;;;28.00;36.40;;;;;;5006979;28;20030;-83
2022/07/17 11:07:59;;;;;;;1.60;1.15;;;27.90;36.80;;;;;;5006008;28;20022;-83
2022/07/17 11:10:26;;;;;;;3.58;1.67;;;27.90;37.00;;;;;;4987756;28;20419;-86
2022/07/17 11:13:07;;;;;;;1.30;1.20;;;28.00;37.00;;;;;;4993012;28;20076;-84
2022/07/17 11:15:41;;;;;;;1.20;1.20;;;28.10;36.70;;;;;;5005376;28;20038;-85
2022/07/17 11:18:19;;;;;;;1.75;1.10;;;28.30;36.80;;;;;;4987380;28;20058;-86
2022/07/17 11:20:56;;;;;;;1.30;1.10;;;28.40;36.40;;;;;;4989687;28;20027;-86
2022/07/17 11:23:24;;;;;;;1.50;1.40;;;28.50;36.10;;;;;;4970037;28;20015;-85
2022/07/17 11:26:00;;;;;;;1.70;1.48;;;28.60;36.20;;;;;;4993884;28;20054;-83
2022/07/17 11:28:42;;;;;;;1.58;1.48;;;28.80;36.40;;;;;;4985294;28;20027;-83
2022/07/17 11:31:21;;;;;;;;;;;28.80;35.30;;;;;;4999284;28;20042;-84
2022/07/17 11:33:53;;;;;;;1.95;1.30;;;28.60;35.00;;;;;;4998649;28;19945;-81
2022/07/17 11:36:32;;;;;;;1.60;1.27;;;28.30;35.30;;;;;;4998547;28;20037;-82
2022/07/17 11:39:04;;;;;;;1.23;1.05;;;28.10;34.90;;;;;;5010038;28;20045;-83
2022/07/17 11:41:36;;;;;;;1.75;1.00;;;28.00;35.30;;;;;;5017041;28;20106;-84
2022/07/17 11:44:04;;;;;;;1.52;1.42;;;28.00;35.40;;;;;;5015590;28;20070;-83
2022/07/17 11:46:31;;;;;;;2.00;1.48;;;28.20;35.80;;;;;;5016936;28;20049;-84
2022/07/17 11:48:57;;;;;;;1.60;1.50;;;28.30;35.70;;;;;;5015438;28;20023;-82
2022/07/17 11:51:44;;;;;;;2.35;1.67;;;28.30;35.60;;;;;;5017029;28;20042;-83
2022/07/17 11:54:12;;;;;;;1.92;1.70;;;28.30;35.20;;;;;;5016343;28;20038;-83
2022/07/17 11:56:39;;;;;;;1.42;1.30;;;28.40;34.60;;;;;;5014454;28;20029;-83
2022/07/17 11:59:06;;;;;;;1.65;1.55;;;28.30;35.10;;;;;;5015957;28;20037;-86
2022/07/17 12:01:45;;;;;;;0.93;0.93;;;28.20;34.60;;;;;;4996249;28;20049;-84
2022/07/17 12:04:13;;;;;;;1.65;1.40;;;28.20;34.80;;;;;;4995947;28;20113;-86
2022/07/17 12:06:39;;;;;;;1.98;1.33;;;28.40;34.60;;;;;;5012674;28;20019;-84
2022/07/17 12:09:06;;;;;;;2.70;1.30;;;28.20;34.60;;;;;;5011824;28;20057;-85
2022/07/17 12:11:32;;;;;;;1.90;1.80;;;28.50;35.20;;;;;;5009112;28;20022;-87
2022/07/17 12:14:05;;;;;;;1.58;1.20;;;28.60;35.60;;;;;;5010791;28;20110;-85
2022/07/17 12:16:32;;;;;;;1.65;1.50;;;28.80;35.40;;;;;;5007360;28;20395;-84
2022/07/17 12:19:08;;;;;;;1.58;1.35;;;29.20;35.20;;;;;;5009748;28;20030;-84
2022/07/17 12:21:46;;;;;;;1.20;1.15;;;29.40;34.20;;;;;;5015389;28;20454;-83
2022/07/17 12:24:22;;;;;;;1.83;1.67;;;29.20;34.20;;;;;;4991707;28;20038;-85
2022/07/17 12:26:49;;;;;;;3.15;1.45;;;29.00;34.30;;;;;;5007046;28;20079;-84
2022/07/17 12:29:15;;;;;;;2.63;1.63;;;29.00;34.50;;;;;;5007029;28;20027;-86
2022/07/17 12:31:41;;;;;;;2.20;1.58;;;29.10;34.40;;;;;;4986670;28;20022;-84
2022/07/17 12:34:07;;;;;;;2.22;1.52;;;29.10;34.00;;;;;;5001438;28;20069;-84
2022/07/17 12:36:33;;;;;;;2.15;1.60;;;29.00;33.50;;;;;;5006739;28;20068;-86
2022/07/17 12:38:58;;;;;;;2.45;1.77;;;29.10;33.90;;;;;;4998514;28;20018;-85
2022/07/17 12:41:24;;;;;;;1.13;1.13;;;29.30;33.60;;;;;;5003384;28;20038;-84
2022/07/17 12:43:50;;;;;;;3.50;1.50;;;29.40;33.50;;;;;;5011586;28;20618;-83
2022/07/17 12:46:16;;;;;;;1.90;1.38;;;29.50;33.80;;;;;;5013851;28;20116;-82
2022/07/17 12:48:43;;;;;;;1.95;1.50;;;29.60;33.00;;;;;;5000970;28;20018;-82
2022/07/17 12:51:10;;;;;;;1.50;1.40;;;29.40;33.30;;;;;;5016873;28;20045;-82
2022/07/17 12:53:36;;;;;;;3.25;1.60;;;29.30;33.60;;;;;;5015804;28;20034;-84
2022/07/17 12:56:03;;;;;;;3.45;1.67;;;29.30;33.30;;;;;;5013215;28;20031;-84